sensor_id;sensor_type;location;lat;lon;timestamp;temperature;humidity
55365;DHT22;41245;45.384;20.390;2023-05-07T00:00:00;410.50;2355.20
55365;DHT22;41245;45.384;20.390;2023-05-07T00:02:26;410.40;2355.20
55365;DHT22;41245;45.384;20.390;2023-05-07T00:04:52;410.40;2355.20
55365;DHT22;41245;45.384;20.390;2023-05-07T00:07:18;410.40;2355.20
55365;DHT22;41245;45.384;20.390;2023-05-07T00:09:44;410.30;2355.20
55365;DHT22;41245;45.384;20.390;2023-05-07T00:12:10;410.10;2355.20
55365;DHT22;41245;45.384;20.390;2023-05-07T00:14:36;410.00;2355.20
55365;DHT22;41245;45.384;20.390;2023-05-07T00:17:02;409.90;2355.20
55365;DHT22;41245;45.384;20.390;2023-05-07T00:19:27;409.90;2355.20
55365;DHT22;41245;45.384;20.390;2023-05-07T00:21:53;409.90;2355.20
55365;DHT22;41245;45.384;20.390;2023-05-07T00:24:19;409.80;2355.20
55365;DHT22;41245;45.384;20.390;2023-05-07T00:26:45;409.70;2355.20
55365;DHT22;41245;45.384;20.390;2023-05-07T00:29:11;409.70;2355.20
55365;DHT22;41245;45.384;20.390;2023-05-07T00:31:37;409.60;2355.20
55365;DHT22;41245;45.384;20.390;2023-05-07T00:34:03;409.60;2355.20
55365;DHT22;41245;45.384;20.390;2023-05-07T00:36:28;384.80;2329.60
55365;DHT22;41245;45.384;20.390;2023-05-07T00:38:54;384.80;2329.60
55365;DHT22;41245;45.384;20.390;2023-05-07T00:41:20;384.80;2329.60
55365;DHT22;41245;45.384;20.390;2023-05-07T00:43:46;384.80;2329.60
55365;DHT22;41245;45.384;20.390;2023-05-07T00:46:13;384.80;2329.60
55365;DHT22;41245;45.384;20.390;2023-05-07T00:48:40;384.80;2329.60
55365;DHT22;41245;45.384;20.390;2023-05-07T00:51:05;409.80;2355.20
55365;DHT22;41245;45.384;20.390;2023-05-07T00:53:31;384.70;2329.60
55365;DHT22;41245;45.384;20.390;2023-05-07T00:55:57;384.70;2329.60
55365;DHT22;41245;45.384;20.390;2023-05-07T00:58:23;384.80;2329.60
55365;DHT22;41245;45.384;20.390;2023-05-07T01:00:49;384.70;2329.60
55365;DHT22;41245;45.384;20.390;2023-05-07T01:03:15;384.80;2329.60
55365;DHT22;41245;45.384;20.390;2023-05-07T01:05:42;384.90;2329.60
55365;DHT22;41245;45.384;20.390;2023-05-07T01:08:09;409.60;2355.20
55365;DHT22;41245;45.384;20.390;2023-05-07T01:10:36;409.60;2355.20
55365;DHT22;41245;45.384;20.390;2023-05-07T01:13:02;409.60;2355.20
55365;DHT22;41245;45.384;20.390;2023-05-07T01:15:28;409.60;2355.20
55365;DHT22;41245;45.384;20.390;2023-05-07T01:17:54;409.60;2355.20
55365;DHT22;41245;45.384;20.390;2023-05-07T01:20:22;409.60;2355.20
55365;DHT22;41245;45.384;20.390;2023-05-07T01:22:49;409.70;2355.20
55365;DHT22;41245;45.384;20.390;2023-05-07T01:25:15;409.70;2355.20
55365;DHT22;41245;45.384;20.390;2023-05-07T01:27:41;409.70;2355.20
55365;DHT22;41245;45.384;20.390;2023-05-07T01:30:07;409.70;2355.20
55365;DHT22;41245;45.384;20.390;2023-05-07T01:32:42;409.70;2355.20
55365;DHT22;41245;45.384;20.390;2023-05-07T01:35:18;409.70;2355.20
55365;DHT22;41245;45.384;20.390;2023-05-07T01:37:46;409.80;2355.20
55365;DHT22;41245;45.384;20.390;2023-05-07T01:40:12;409.80;2355.20
55365;DHT22;41245;45.384;20.390;2023-05-07T01:42:38;409.80;2355.20
55365;DHT22;41245;45.384;20.390;2023-05-07T01:45:05;409.80;2355.20
55365;DHT22;41245;45.384;20.390;2023-05-07T01:47:31;409.80;2355.20
55365;DHT22;41245;45.384;20.390;2023-05-07T01:49:58;409.80;2355.20
55365;DHT22;41245;45.384;20.390;2023-05-07T01:52:24;409.80;2355.20
55365;DHT22;41245;45.384;20.390;2023-05-07T01:54:50;409.80;2355.20
55365;DHT22;41245;45.384;20.390;2023-05-07T01:57:16;409.80;2355.20
55365;DHT22;41245;45.384;20.390;2023-05-07T01:59:42;409.80;2355.20
55365;DHT22;41245;45.384;20.390;2023-05-07T02:02:07;409.70;2355.20
55365;DHT22;41245;45.384;20.390;2023-05-07T02:04:33;409.70;2355.20
55365;DHT22;41245;45.384;20.390;2023-05-07T02:06:59;409.60;2355.20
55365;DHT22;41245;45.384;20.390;2023-05-07T02:09:24;409.60;2355.20
55365;DHT22;41245;45.384;20.390;2023-05-07T02:11:50;409.60;2355.20
55365;DHT22;41245;45.384;20.390;2023-05-07T02:14:16;384.90;2329.60
55365;DHT22;41245;45.384;20.390;2023-05-07T02:16:42;384.80;2329.60
55365;DHT22;41245;45.384;20.390;2023-05-07T02:19:07;384.70;2329.60
55365;DHT22;41245;45.384;20.390;2023-05-07T02:21:33;384.60;2329.60
55365;DHT22;41245;45.384;20.390;2023-05-07T02:23:59;384.50;2329.60
55365;DHT22;41245;45.384;20.390;2023-05-07T02:26:24;384.40;2329.60
55365;DHT22;41245;45.384;20.390;2023-05-07T02:28:51;384.40;2329.60
55365;DHT22;41245;45.384;20.390;2023-05-07T02:31:17;384.30;2329.60
55365;DHT22;41245;45.384;20.390;2023-05-07T02:33:43;384.30;2329.60
55365;DHT22;41245;45.384;20.390;2023-05-07T02:36:09;384.30;2329.60
55365;DHT22;41245;45.384;20.390;2023-05-07T02:38:35;384.30;2329.60
55365;DHT22;41245;45.384;20.390;2023-05-07T02:41:01;384.30;2329.60
55365;DHT22;41245;45.384;20.390;2023-05-07T02:43:27;384.40;2329.60
55365;DHT22;41245;45.384;20.390;2023-05-07T02:46:06;384.30;2329.60
55365;DHT22;41245;45.384;20.390;2023-05-07T02:48:32;384.30;2329.60
55365;DHT22;41245;45.384;20.390;2023-05-07T02:50:58;384.20;2329.60
55365;DHT22;41245;45.384;20.390;2023-05-07T02:53:24;384.30;2329.60
55365;DHT22;41245;45.384;20.390;2023-05-07T02:55:56;384.20;2329.60
55365;DHT22;41245;45.384;20.390;2023-05-07T02:58:23;384.20;2329.60
55365;DHT22;41245;45.384;20.390;2023-05-07T03:00:49;384.20;2329.60
55365;DHT22;41245;45.384;20.390;2023-05-07T03:03:15;384.30;2329.60
55365;DHT22;41245;45.384;20.390;2023-05-07T03:05:41;384.30;2329.60
55365;DHT22;41245;45.384;20.390;2023-05-07T03:08:07;384.30;2329.60
55365;DHT22;41245;45.384;20.390;2023-05-07T03:10:33;384.40;2329.60
55365;DHT22;41245;45.384;20.390;2023-05-07T03:12:59;384.40;2329.60
55365;DHT22;41245;45.384;20.390;2023-05-07T03:15:25;384.40;2329.60
55365;DHT22;41245;45.384;20.390;2023-05-07T03:17:50;384.50;2329.60
55365;DHT22;41245;45.384;20.390;2023-05-07T03:20:16;384.50;2329.60
55365;DHT22;41245;45.384;20.390;2023-05-07T03:22:42;384.60;2329.60
55365;DHT22;41245;45.384;20.390;2023-05-07T03:25:08;384.70;2329.60
55365;DHT22;41245;45.384;20.390;2023-05-07T03:27:34;384.70;2329.60
55365;DHT22;41245;45.384;20.390;2023-05-07T03:30:00;384.80;2329.60
55365;DHT22;41245;45.384;20.390;2023-05-07T03:32:26;384.80;2329.60
55365;DHT22;41245;45.384;20.390;2023-05-07T03:34:52;384.80;2329.60
55365;DHT22;41245;45.384;20.390;2023-05-07T03:37:18;384.90;2329.60
55365;DHT22;41245;45.384;20.390;2023-05-07T03:39:44;409.60;2355.20
55365;DHT22;41245;45.384;20.390;2023-05-07T03:42:10;409.60;2355.20
55365;DHT22;41245;45.384;20.390;2023-05-07T03:44:36;409.70;2355.20
55365;DHT22;41245;45.384;20.390;2023-05-07T03:47:02;409.70;2355.20
55365;DHT22;41245;45.384;20.390;2023-05-07T03:49:28;409.80;2355.20
55365;DHT22;41245;45.384;20.390;2023-05-07T03:51:54;409.90;2355.20
55365;DHT22;41245;45.384;20.390;2023-05-07T03:54:20;410.30;2355.20
55365;DHT22;41245;45.384;20.390;2023-05-07T03:56:45;435.40;2355.20
55365;DHT22;41245;45.384;20.390;2023-05-07T03:59:12;435.60;2355.20
55365;DHT22;41245;45.384;20.390;2023-05-07T04:01:38;435.70;2355.20
55365;DHT22;41245;45.384;20.390;2023-05-07T04:04:04;460.80;2380.80
55365;DHT22;41245;45.384;20.390;2023-05-07T04:06:30;486.70;2048.00
55365;DHT22;41245;45.384;20.390;2023-05-07T04:08:56;512.10;2380.80
55365;DHT22;41245;45.384;20.390;2023-05-07T04:11:22;512.70;2380.80
55365;DHT22;41245;45.384;20.390;2023-05-07T04:13:47;512.90;2380.80
55365;DHT22;41245;45.384;20.390;2023-05-07T04:16:13;537.80;2406.40
55365;DHT22;41245;45.384;20.390;2023-05-07T04:18:39;537.90;2406.40
55365;DHT22;41245;45.384;20.390;2023-05-07T04:21:05;563.20;2432.00
55365;DHT22;41245;45.384;20.390;2023-05-07T04:23:31;563.70;2432.00
55365;DHT22;41245;45.384;20.390;2023-05-07T04:25:57;588.80;2432.00
55365;DHT22;41245;45.384;20.390;2023-05-07T04:28:23;589.30;2432.00
55365;DHT22;41245;45.384;20.390;2023-05-07T04:30:49;589.10;2432.00
55365;DHT22;41245;45.384;20.390;2023-05-07T04:33:15;589.20;2432.00
55365;DHT22;41245;45.384;20.390;2023-05-07T04:35:43;614.40;2432.00
55365;DHT22;41245;45.384;20.390;2023-05-07T04:38:09;614.40;2432.00
55365;DHT22;41245;45.384;20.390;2023-05-07T04:40:38;589.60;2432.00
55365;DHT22;41245;45.384;20.390;2023-05-07T04:43:04;589.30;2432.00
55365;DHT22;41245;45.384;20.390;2023-05-07T04:45:30;589.70;2432.00
55365;DHT22;41245;45.384;20.390;2023-05-07T04:47:55;614.70;2432.00
55365;DHT22;41245;45.384;20.390;2023-05-07T04:50:21;614.70;2432.00
55365;DHT22;41245;45.384;20.390;2023-05-07T04:52:49;615.10;2432.00
55365;DHT22;41245;45.384;20.390;2023-05-07T04:55:15;640.00;2432.00
55365;DHT22;41245;45.384;20.390;2023-05-07T04:57:41;640.20;2432.00
55365;DHT22;41245;45.384;20.390;2023-05-07T05:00:07;640.40;2432.00
55365;DHT22;41245;45.384;20.390;2023-05-07T05:02:34;640.20;2432.00
55365;DHT22;41245;45.384;20.390;2023-05-07T05:05:01;640.20;2432.00
55365;DHT22;41245;45.384;20.390;2023-05-07T05:07:29;640.50;2432.00
55365;DHT22;41245;45.384;20.390;2023-05-07T05:09:55;640.90;2432.00
55365;DHT22;41245;45.384;20.390;2023-05-07T05:12:22;665.70;2432.00
55365;DHT22;41245;45.384;20.390;2023-05-07T05:14:48;640.80;2432.00
55365;DHT22;41245;45.384;20.390;2023-05-07T05:17:14;640.50;2432.00
55365;DHT22;41245;45.384;20.390;2023-05-07T05:19:40;640.50;2432.00
55365;DHT22;41245;45.384;20.390;2023-05-07T05:22:05;640.80;2432.00
55365;DHT22;41245;45.384;20.390;2023-05-07T05:24:31;665.80;2432.00
55365;DHT22;41245;45.384;20.390;2023-05-07T05:26:57;665.70;2432.00
55365;DHT22;41245;45.384;20.390;2023-05-07T05:29:25;665.60;2432.00
55365;DHT22;41245;45.384;20.390;2023-05-07T05:31:51;666.10;2432.00
55365;DHT22;41245;45.384;20.390;2023-05-07T05:34:16;691.30;2432.00
55365;DHT22;41245;45.384;20.390;2023-05-07T05:36:45;691.60;2432.00
55365;DHT22;41245;45.384;20.390;2023-05-07T05:39:10;692.10;2432.00
55365;DHT22;41245;45.384;20.390;2023-05-07T05:41:36;717.70;2432.00
55365;DHT22;41245;45.384;20.390;2023-05-07T05:44:02;743.20;2432.00
55365;DHT22;41245;45.384;20.390;2023-05-07T05:46:27;768.50;2432.00
55365;DHT22;41245;45.384;20.390;2023-05-07T05:48:53;793.60;2432.00
55365;DHT22;41245;45.384;20.390;2023-05-07T05:51:20;794.10;2432.00
55365;DHT22;41245;45.384;20.390;2023-05-07T05:53:45;794.40;2432.00
55365;DHT22;41245;45.384;20.390;2023-05-07T05:56:11;819.40;2432.00
55365;DHT22;41245;45.384;20.390;2023-05-07T05:58:37;819.70;2432.00
55365;DHT22;41245;45.384;20.390;2023-05-07T06:01:03;794.50;2432.00
55365;DHT22;41245;45.384;20.390;2023-05-07T06:03:28;768.50;2432.00
55365;DHT22;41245;45.384;20.390;2023-05-07T06:05:54;717.60;2432.00
55365;DHT22;41245;45.384;20.390;2023-05-07T06:08:20;691.20;2432.00
55365;DHT22;41245;45.384;20.390;2023-05-07T06:10:45;640.90;2432.00
55365;DHT22;41245;45.384;20.390;2023-05-07T06:13:11;640.20;2432.00
55365;DHT22;41245;45.384;20.390;2023-05-07T06:15:37;614.80;2432.00
55365;DHT22;41245;45.384;20.390;2023-05-07T06:18:02;614.40;2432.00
55365;DHT22;41245;45.384;20.390;2023-05-07T06:20:28;589.40;2432.00
55365;DHT22;41245;45.384;20.390;2023-05-07T06:22:54;589.20;2432.00
55365;DHT22;41245;45.384;20.390;2023-05-07T06:25:19;588.90;2432.00
55365;DHT22;41245;45.384;20.390;2023-05-07T06:27:45;588.80;2432.00
55365;DHT22;41245;45.384;20.390;2023-05-07T06:30:11;564.00;2432.00
55365;DHT22;41245;45.384;20.390;2023-05-07T06:32:37;564.00;2432.00
55365;DHT22;41245;45.384;20.390;2023-05-07T06:35:03;564.00;2432.00
55365;DHT22;41245;45.384;20.390;2023-05-07T06:37:28;563.90;2432.00
55365;DHT22;41245;45.384;20.390;2023-05-07T06:39:54;563.90;2432.00
55365;DHT22;41245;45.384;20.390;2023-05-07T06:42:20;563.80;2432.00
55365;DHT22;41245;45.384;20.390;2023-05-07T06:44:45;563.80;2432.00
55365;DHT22;41245;45.384;20.390;2023-05-07T06:47:11;563.90;2432.00
55365;DHT22;41245;45.384;20.390;2023-05-07T06:49:37;563.80;2432.00
55365;DHT22;41245;45.384;20.390;2023-05-07T06:52:03;563.80;2432.00
55365;DHT22;41245;45.384;20.390;2023-05-07T06:54:29;563.80;2432.00
55365;DHT22;41245;45.384;20.390;2023-05-07T06:56:54;563.90;2432.00
55365;DHT22;41245;45.384;20.390;2023-05-07T06:59:20;564.00;2432.00
55365;DHT22;41245;45.384;20.390;2023-05-07T07:01:46;564.00;2432.00
55365;DHT22;41245;45.384;20.390;2023-05-07T07:04:11;563.90;2432.00
55365;DHT22;41245;45.384;20.390;2023-05-07T07:06:37;563.90;2432.00
55365;DHT22;41245;45.384;20.390;2023-05-07T07:09:03;564.00;2432.00
55365;DHT22;41245;45.384;20.390;2023-05-07T07:11:29;588.80;2432.00
55365;DHT22;41245;45.384;20.390;2023-05-07T07:13:54;588.80;2432.00
55365;DHT22;41245;45.384;20.390;2023-05-07T07:16:21;589.00;2432.00
55365;DHT22;41245;45.384;20.390;2023-05-07T07:18:47;589.00;2432.00
55365;DHT22;41245;45.384;20.390;2023-05-07T07:21:12;589.00;2432.00
55365;DHT22;41245;45.384;20.390;2023-05-07T07:23:38;589.00;2432.00
55365;DHT22;41245;45.384;20.390;2023-05-07T07:26:04;589.10;2432.00
55365;DHT22;41245;45.384;20.390;2023-05-07T07:28:31;589.10;2432.00
55365;DHT22;41245;45.384;20.390;2023-05-07T07:30:57;589.10;2432.00
55365;DHT22;41245;45.384;20.390;2023-05-07T07:33:22;589.20;2432.00
55365;DHT22;41245;45.384;20.390;2023-05-07T07:35:48;589.40;2432.00
55365;DHT22;41245;45.384;20.390;2023-05-07T07:38:14;589.50;2432.00
55365;DHT22;41245;45.384;20.390;2023-05-07T07:40:39;589.70;2432.00
55365;DHT22;41245;45.384;20.390;2023-05-07T07:43:05;589.70;2432.00
55365;DHT22;41245;45.384;20.390;2023-05-07T07:45:32;614.40;2432.00
55365;DHT22;41245;45.384;20.390;2023-05-07T07:47:58;614.50;2432.00
55365;DHT22;41245;45.384;20.390;2023-05-07T07:50:24;614.70;2432.00
55365;DHT22;41245;45.384;20.390;2023-05-07T07:52:49;614.50;2432.00
55365;DHT22;41245;45.384;20.390;2023-05-07T07:55:15;614.60;2432.00
55365;DHT22;41245;45.384;20.390;2023-05-07T07:57:46;614.70;2432.00
55365;DHT22;41245;45.384;20.390;2023-05-07T08:00:12;614.90;2432.00
55365;DHT22;41245;45.384;20.390;2023-05-07T08:02:38;614.90;2432.00
55365;DHT22;41245;45.384;20.390;2023-05-07T08:05:04;615.00;2432.00
55365;DHT22;41245;45.384;20.390;2023-05-07T08:07:29;615.20;2432.00
55365;DHT22;41245;45.384;20.390;2023-05-07T08:09:55;615.30;2432.00
55365;DHT22;41245;45.384;20.390;2023-05-07T08:12:21;640.00;2432.00
55365;DHT22;41245;45.384;20.390;2023-05-07T08:14:47;640.10;2432.00
55365;DHT22;41245;45.384;20.390;2023-05-07T08:17:12;615.30;2432.00
55365;DHT22;41245;45.384;20.390;2023-05-07T08:19:41;640.10;2432.00
55365;DHT22;41245;45.384;20.390;2023-05-07T08:22:07;640.20;2432.00
55365;DHT22;41245;45.384;20.390;2023-05-07T08:24:32;640.30;2432.00
55365;DHT22;41245;45.384;20.390;2023-05-07T08:26:58;640.30;2432.00
55365;DHT22;41245;45.384;20.390;2023-05-07T08:29:24;640.30;2432.00
55365;DHT22;41245;45.384;20.390;2023-05-07T08:31:50;640.30;2432.00
55365;DHT22;41245;45.384;20.390;2023-05-07T08:34:15;640.40;2432.00
55365;DHT22;41245;45.384;20.390;2023-05-07T08:36:41;640.40;2432.00
55365;DHT22;41245;45.384;20.390;2023-05-07T08:39:11;640.60;2432.00
55365;DHT22;41245;45.384;20.390;2023-05-07T08:41:37;640.50;2432.00
55365;DHT22;41245;45.384;20.390;2023-05-07T08:44:03;640.50;2432.00
55365;DHT22;41245;45.384;20.390;2023-05-07T08:46:31;640.60;2432.00
55365;DHT22;41245;45.384;20.390;2023-05-07T08:48:57;640.50;2432.00
55365;DHT22;41245;45.384;20.390;2023-05-07T08:51:23;640.60;2432.00
55365;DHT22;41245;45.384;20.390;2023-05-07T08:53:49;640.80;2432.00
55365;DHT22;41245;45.384;20.390;2023-05-07T08:56:17;640.70;2432.00
55365;DHT22;41245;45.384;20.390;2023-05-07T08:58:43;640.60;2432.00
55365;DHT22;41245;45.384;20.390;2023-05-07T09:01:12;640.80;2432.00
55365;DHT22;41245;45.384;20.390;2023-05-07T09:03:39;640.80;2432.00
55365;DHT22;41245;45.384;20.390;2023-05-07T09:06:06;665.60;2432.00
55365;DHT22;41245;45.384;20.390;2023-05-07T09:08:33;665.60;2432.00
55365;DHT22;41245;45.384;20.390;2023-05-07T09:10:59;665.60;2432.00
55365;DHT22;41245;45.384;20.390;2023-05-07T09:13:27;665.70;2432.00
55365;DHT22;41245;45.384;20.390;2023-05-07T09:15:52;665.70;2432.00
55365;DHT22;41245;45.384;20.390;2023-05-07T09:18:18;665.80;2432.00
55365;DHT22;41245;45.384;20.390;2023-05-07T09:20:45;665.70;2432.00
55365;DHT22;41245;45.384;20.390;2023-05-07T09:23:11;665.80;2432.00
55365;DHT22;41245;45.384;20.390;2023-05-07T09:25:37;666.10;2432.00
55365;DHT22;41245;45.384;20.390;2023-05-07T09:28:04;666.10;2432.00
55365;DHT22;41245;45.384;20.390;2023-05-07T09:30:32;666.10;2432.00
55365;DHT22;41245;45.384;20.390;2023-05-07T09:32:59;666.20;2432.00
55365;DHT22;41245;45.384;20.390;2023-05-07T09:35:26;666.10;2432.00
55365;DHT22;41245;45.384;20.390;2023-05-07T09:37:57;666.10;2432.00
55365;DHT22;41245;45.384;20.390;2023-05-07T09:40:27;666.20;2432.00
55365;DHT22;41245;45.384;20.390;2023-05-07T09:42:54;666.40;2432.00
55365;DHT22;41245;45.384;20.390;2023-05-07T09:45:26;691.30;2432.00
55365;DHT22;41245;45.384;20.390;2023-05-07T09:47:57;691.80;2432.00
55365;DHT22;41245;45.384;20.390;2023-05-07T09:50:29;691.80;2432.00
55365;DHT22;41245;45.384;20.390;2023-05-07T09:52:56;691.70;2432.00
55365;DHT22;41245;45.384;20.390;2023-05-07T09:55:22;691.90;2432.00
55365;DHT22;41245;45.384;20.390;2023-05-07T09:57:52;692.10;2432.00
55365;DHT22;41245;45.384;20.390;2023-05-07T10:00:19;717.00;2432.00
55365;DHT22;41245;45.384;20.390;2023-05-07T10:02:51;717.20;2432.00
55365;DHT22;41245;45.384;20.390;2023-05-07T10:05:21;717.50;2432.00
55365;DHT22;41245;45.384;20.390;2023-05-07T10:07:48;717.60;2432.00
55365;DHT22;41245;45.384;20.390;2023-05-07T10:10:14;742.40;2432.00
55365;DHT22;41245;45.384;20.390;2023-05-07T10:12:41;742.60;2432.00
55365;DHT22;41245;45.384;20.390;2023-05-07T10:15:08;742.80;2432.00
55365;DHT22;41245;45.384;20.390;2023-05-07T10:17:41;743.00;2432.00
55365;DHT22;41245;45.384;20.390;2023-05-07T10:20:07;743.10;2432.00
55365;DHT22;41245;45.384;20.390;2023-05-07T10:22:47;742.80;2432.00
55365;DHT22;41245;45.384;20.390;2023-05-07T10:25:18;742.40;2432.00
55365;DHT22;41245;45.384;20.390;2023-05-07T10:27:45;717.50;2432.00
55365;DHT22;41245;45.384;20.390;2023-05-07T10:32:49;717.50;2432.00
55365;DHT22;41245;45.384;20.390;2023-05-07T10:35:21;717.50;2432.00
55365;DHT22;41245;45.384;20.390;2023-05-07T10:37:48;717.40;2432.00
55365;DHT22;41245;45.384;20.390;2023-05-07T10:40:14;717.30;2432.00
55365;DHT22;41245;45.384;20.390;2023-05-07T10:43:00;717.00;2432.00
55365;DHT22;41245;45.384;20.390;2023-05-07T10:45:27;716.80;2432.00
55365;DHT22;41245;45.384;20.390;2023-05-07T10:50:31;717.20;2432.00
55365;DHT22;41245;45.384;20.390;2023-05-07T10:55:49;717.20;2432.00
55365;DHT22;41245;45.384;20.390;2023-05-07T11:00:47;717.30;2432.00
55365;DHT22;41245;45.384;20.390;2023-05-07T11:03:14;717.50;2432.00
55365;DHT22;41245;45.384;20.390;2023-05-07T11:05:41;742.40;2432.00
55365;DHT22;41245;45.384;20.390;2023-05-07T11:08:08;742.50;2432.00
55365;DHT22;41245;45.384;20.390;2023-05-07T11:10:54;742.80;2432.00
55365;DHT22;41245;45.384;20.390;2023-05-07T11:13:59;743.00;2432.00
55365;DHT22;41245;45.384;20.390;2023-05-07T11:16:25;768.00;2432.00
55365;DHT22;41245;45.384;20.390;2023-05-07T11:18:54;768.40;2432.00
55365;DHT22;41245;45.384;20.390;2023-05-07T11:24:00;768.70;2432.00
55365;DHT22;41245;45.384;20.390;2023-05-07T11:26:27;768.80;2432.00
55365;DHT22;41245;45.384;20.390;2023-05-07T11:28:54;768.80;2432.00
55365;DHT22;41245;45.384;20.390;2023-05-07T11:31:22;793.70;2432.00
55365;DHT22;41245;45.384;20.390;2023-05-07T11:33:49;768.80;2432.00
55365;DHT22;41245;45.384;20.390;2023-05-07T11:36:15;768.90;2432.00
55365;DHT22;41245;45.384;20.390;2023-05-07T11:38:41;768.80;2432.00
55365;DHT22;41245;45.384;20.390;2023-05-07T11:41:07;768.60;2432.00
55365;DHT22;41245;45.384;20.390;2023-05-07T11:43:33;768.40;2432.00
55365;DHT22;41245;45.384;20.390;2023-05-07T11:46:11;768.60;2432.00
55365;DHT22;41245;45.384;20.390;2023-05-07T11:48:38;768.20;2432.00
55365;DHT22;41245;45.384;20.390;2023-05-07T11:51:05;768.10;2432.00
55365;DHT22;41245;45.384;20.390;2023-05-07T11:53:39;768.00;2432.00
55365;DHT22;41245;45.384;20.390;2023-05-07T11:56:12;743.20;2432.00
55365;DHT22;41245;45.384;20.390;2023-05-07T11:58:39;743.10;2432.00
55365;DHT22;41245;45.384;20.390;2023-05-07T12:01:08;743.20;2432.00
55365;DHT22;41245;45.384;20.390;2023-05-07T12:03:36;742.70;2432.00
55365;DHT22;41245;45.384;20.390;2023-05-07T12:06:08;742.40;2432.00
55365;DHT22;41245;45.384;20.390;2023-05-07T12:08:36;717.70;2432.00
55365;DHT22;41245;45.384;20.390;2023-05-07T12:11:03;717.30;2432.00
55365;DHT22;41245;45.384;20.390;2023-05-07T12:13:32;717.50;2432.00
55365;DHT22;41245;45.384;20.390;2023-05-07T12:15:57;717.60;2432.00
55365;DHT22;41245;45.384;20.390;2023-05-07T12:18:23;717.60;2432.00
55365;DHT22;41245;45.384;20.390;2023-05-07T12:20:50;717.70;2432.00
55365;DHT22;41245;45.384;20.390;2023-05-07T12:23:17;742.60;2432.00
55365;DHT22;41245;45.384;20.390;2023-05-07T12:25:43;742.60;2432.00
55365;DHT22;41245;45.384;20.390;2023-05-07T12:28:16;742.60;2432.00
55365;DHT22;41245;45.384;20.390;2023-05-07T12:30:47;742.70;2432.00
55365;DHT22;41245;45.384;20.390;2023-05-07T12:33:17;742.80;2432.00
55365;DHT22;41245;45.384;20.390;2023-05-07T12:35:43;742.70;2432.00
55365;DHT22;41245;45.384;20.390;2023-05-07T12:38:14;743.00;2432.00
55365;DHT22;41245;45.384;20.390;2023-05-07T12:40:46;742.80;2432.00
55365;DHT22;41245;45.384;20.390;2023-05-07T12:43:20;742.70;2432.00
55365;DHT22;41245;45.384;20.390;2023-05-07T12:45:50;742.40;2432.00
55365;DHT22;41245;45.384;20.390;2023-05-07T12:48:16;742.60;2432.00
55365;DHT22;41245;45.384;20.390;2023-05-07T12:50:42;742.50;2432.00
55365;DHT22;41245;45.384;20.390;2023-05-07T12:53:11;742.80;2432.00
55365;DHT22;41245;45.384;20.390;2023-05-07T12:55:45;742.70;2432.00
55365;DHT22;41245;45.384;20.390;2023-05-07T12:58:19;742.90;2432.00
55365;DHT22;41245;45.384;20.390;2023-05-07T13:00:48;743.00;2432.00
55365;DHT22;41245;45.384;20.390;2023-05-07T13:03:28;743.10;2432.00
55365;DHT22;41245;45.384;20.390;2023-05-07T13:05:59;743.10;2432.00
55365;DHT22;41245;45.384;20.390;2023-05-07T13:08:32;743.10;2432.00
55365;DHT22;41245;45.384;20.390;2023-05-07T13:11:02;768.00;2432.00
55365;DHT22;41245;45.384;20.390;2023-05-07T13:13:32;768.10;2432.00
55365;DHT22;41245;45.384;20.390;2023-05-07T13:15:58;768.20;2432.00
55365;DHT22;41245;45.384;20.390;2023-05-07T13:18:28;768.20;2432.00
55365;DHT22;41245;45.384;20.390;2023-05-07T13:20:54;768.10;2432.00
55365;DHT22;41245;45.384;20.390;2023-05-07T13:23:20;768.00;2432.00
55365;DHT22;41245;45.384;20.390;2023-05-07T13:25:46;768.10;2432.00
55365;DHT22;41245;45.384;20.390;2023-05-07T13:28:12;768.10;2432.00
55365;DHT22;41245;45.384;20.390;2023-05-07T13:30:38;768.00;2432.00
55365;DHT22;41245;45.384;20.390;2023-05-07T13:33:04;768.10;2432.00
55365;DHT22;41245;45.384;20.390;2023-05-07T13:35:30;743.30;2432.00
55365;DHT22;41245;45.384;20.390;2023-05-07T13:37:56;768.00;2432.00
55365;DHT22;41245;45.384;20.390;2023-05-07T13:40:22;768.10;2432.00
55365;DHT22;41245;45.384;20.390;2023-05-07T13:42:48;768.10;2432.00
55365;DHT22;41245;45.384;20.390;2023-05-07T13:45:14;768.20;2432.00
55365;DHT22;41245;45.384;20.390;2023-05-07T13:47:41;768.20;2432.00
55365;DHT22;41245;45.384;20.390;2023-05-07T13:50:08;768.10;2432.00
55365;DHT22;41245;45.384;20.390;2023-05-07T13:52:34;768.10;2432.00
55365;DHT22;41245;45.384;20.390;2023-05-07T13:55:00;768.00;2432.00
55365;DHT22;41245;45.384;20.390;2023-05-07T13:57:25;743.30;2432.00
55365;DHT22;41245;45.384;20.390;2023-05-07T13:59:51;743.30;2432.00
55365;DHT22;41245;45.384;20.390;2023-05-07T14:02:17;743.30;2432.00
55365;DHT22;41245;45.384;20.390;2023-05-07T14:04:42;743.30;2432.00
55365;DHT22;41245;45.384;20.390;2023-05-07T14:07:08;768.00;2432.00
55365;DHT22;41245;45.384;20.390;2023-05-07T14:09:34;743.30;2432.00
55365;DHT22;41245;45.384;20.390;2023-05-07T14:12:00;743.30;2432.00
55365;DHT22;41245;45.384;20.390;2023-05-07T14:14:26;743.20;2432.00
55365;DHT22;41245;45.384;20.390;2023-05-07T14:16:52;743.00;2432.00
55365;DHT22;41245;45.384;20.390;2023-05-07T14:19:18;742.80;2432.00
55365;DHT22;41245;45.384;20.390;2023-05-07T14:21:44;742.80;2432.00
55365;DHT22;41245;45.384;20.390;2023-05-07T14:24:10;742.80;2432.00
55365;DHT22;41245;45.384;20.390;2023-05-07T14:26:35;742.70;2432.00
55365;DHT22;41245;45.384;20.390;2023-05-07T14:29:02;742.50;2432.00
55365;DHT22;41245;45.384;20.390;2023-05-07T14:31:28;742.60;2432.00
55365;DHT22;41245;45.384;20.390;2023-05-07T14:33:54;742.50;2432.00
55365;DHT22;41245;45.384;20.390;2023-05-07T14:36:20;742.50;2432.00
55365;DHT22;41245;45.384;20.390;2023-05-07T14:38:47;742.50;2432.00
55365;DHT22;41245;45.384;20.390;2023-05-07T14:41:12;742.50;2432.00
55365;DHT22;41245;45.384;20.390;2023-05-07T14:43:38;717.60;2432.00
55365;DHT22;41245;45.384;20.390;2023-05-07T14:46:04;717.60;2432.00